sensor_id;sensor_type;location;lat;lon;timestamp;pressure;altitude;pressure_sealevel;temperature
37452;BMP280;23314;51.114;6.900;2023-11-18T00:01:19;102134.59;;;6.30
37452;BMP280;23314;51.114;6.900;2023-11-18T00:03:44;102135.69;;;6.29
37452;BMP280;23314;51.114;6.900;2023-11-18T00:06:10;102133.84;;;6.30
37452;BMP280;23314;51.114;6.900;2023-11-18T00:08:35;102138.78;;;6.32
37452;BMP280;23314;51.114;6.900;2023-11-18T00:11:01;102136.28;;;6.35
37452;BMP280;23314;51.114;6.900;2023-11-18T00:13:26;102136.38;;;6.39
37452;BMP280;23314;51.114;6.900;2023-11-18T00:15:52;102136.88;;;6.44
37452;BMP280;23314;51.114;6.900;2023-11-18T00:18:18;102135.78;;;6.45
37452;BMP280;23314;51.114;6.900;2023-11-18T00:20:44;102146.06;;;6.47
37452;BMP280;23314;51.114;6.900;2023-11-18T00:23:10;102144.97;;;6.48
37452;BMP280;23314;51.114;6.900;2023-11-18T00:25:35;102160.09;;;6.48
37452;BMP280;23314;51.114;6.900;2023-11-18T00:28:01;102162.44;;;6.49
37452;BMP280;23314;51.114;6.900;2023-11-18T00:30:27;102149.59;;;6.51
37452;BMP280;23314;51.114;6.900;2023-11-18T00:32:53;102152.69;;;6.53
37452;BMP280;23314;51.114;6.900;2023-11-18T00:35:19;102142.94;;;6.57
37452;BMP280;23314;51.114;6.900;2023-11-18T00:37:44;102140.72;;;6.59
37452;BMP280;23314;51.114;6.900;2023-11-18T00:40:09;102127.41;;;6.56
37452;BMP280;23314;51.114;6.900;2023-11-18T00:42:36;102127.16;;;6.49
37452;BMP280;23314;51.114;6.900;2023-11-18T00:45:02;102123.75;;;6.48
37452;BMP280;23314;51.114;6.900;2023-11-18T00:47:29;102116.22;;;6.50
37452;BMP280;23314;51.114;6.900;2023-11-18T00:49:54;102121.53;;;6.50
37452;BMP280;23314;51.114;6.900;2023-11-18T00:52:20;102121.22;;;6.52
37452;BMP280;23314;51.114;6.900;2023-11-18T00:54:45;102118.78;;;6.46
37452;BMP280;23314;51.114;6.900;2023-11-18T00:57:10;102116.47;;;6.45
37452;BMP280;23314;51.114;6.900;2023-11-18T00:59:36;102116.03;;;6.43
37452;BMP280;23314;51.114;6.900;2023-11-18T01:02:02;102107.28;;;6.42
37452;BMP280;23314;51.114;6.900;2023-11-18T01:04:28;102109.63;;;6.44
37452;BMP280;23314;51.114;6.900;2023-11-18T01:06:54;102113.38;;;6.43
37452;BMP280;23314;51.114;6.900;2023-11-18T01:09:19;102108.16;;;6.46
37452;BMP280;23314;51.114;6.900;2023-11-18T01:11:44;102106.75;;;6.49
37452;BMP280;23314;51.114;6.900;2023-11-18T01:14:10;102110.25;;;6.53
37452;BMP280;23314;51.114;6.900;2023-11-18T01:16:35;102110.34;;;6.57
37452;BMP280;23314;51.114;6.900;2023-11-18T01:19:00;102115.75;;;6.60
37452;BMP280;23314;51.114;6.900;2023-11-18T01:21:26;102118.75;;;6.59
37452;BMP280;23314;51.114;6.900;2023-11-18T01:23:53;102118.41;;;6.60
37452;BMP280;23314;51.114;6.900;2023-11-18T01:26:18;102124.91;;;6.63
37452;BMP280;23314;51.114;6.900;2023-11-18T01:28:44;102134.41;;;6.64
37452;BMP280;23314;51.114;6.900;2023-11-18T01:31:11;102135.50;;;6.63
37452;BMP280;23314;51.114;6.900;2023-11-18T01:33:40;102149.56;;;6.64
37452;BMP280;23314;51.114;6.900;2023-11-18T01:36:09;102151.09;;;6.65
37452;BMP280;23314;51.114;6.900;2023-11-18T01:38:35;102150.00;;;6.66
37452;BMP280;23314;51.114;6.900;2023-11-18T01:41:03;102156.06;;;6.66
37452;BMP280;23314;51.114;6.900;2023-11-18T01:43:30;102153.84;;;6.68
37452;BMP280;23314;51.114;6.900;2023-11-18T01:45:58;102155.41;;;6.69
37452;BMP280;23314;51.114;6.900;2023-11-18T01:48:27;102150.09;;;6.69
37452;BMP280;23314;51.114;6.900;2023-11-18T01:50:54;102153.75;;;6.65
37452;BMP280;23314;51.114;6.900;2023-11-18T01:53:21;102144.06;;;6.56
37452;BMP280;23314;51.114;6.900;2023-11-18T01:55:47;102141.31;;;6.53
37452;BMP280;23314;51.114;6.900;2023-11-18T01:58:14;102138.56;;;6.49
37452;BMP280;23314;51.114;6.900;2023-11-18T02:00:45;102128.28;;;6.48
37452;BMP280;23314;51.114;6.900;2023-11-18T02:03:12;102134.69;;;6.46
37452;BMP280;23314;51.114;6.900;2023-11-18T02:05:37;102127.81;;;6.45
37452;BMP280;23314;51.114;6.900;2023-11-18T02:08:04;102136.03;;;6.40
37452;BMP280;23314;51.114;6.900;2023-11-18T02:10:31;102129.53;;;6.38
37452;BMP280;23314;51.114;6.900;2023-11-18T02:13:04;102141.69;;;6.39
37452;BMP280;23314;51.114;6.900;2023-11-18T02:15:33;102131.50;;;6.41
37452;BMP280;23314;51.114;6.900;2023-11-18T02:18:02;102129.28;;;6.43
37452;BMP280;23314;51.114;6.900;2023-11-18T02:20:29;102128.19;;;6.44
37452;BMP280;23314;51.114;6.900;2023-11-18T02:22:55;102128.88;;;6.41
37452;BMP280;23314;51.114;6.900;2023-11-18T02:25:23;102128.88;;;6.41
37452;BMP280;23314;51.114;6.900;2023-11-18T02:27:49;102133.38;;;6.40
37452;BMP280;23314;51.114;6.900;2023-11-18T02:30:14;102128.88;;;6.41
37452;BMP280;23314;51.114;6.900;2023-11-18T02:32:48;102138.38;;;6.42
37452;BMP280;23314;51.114;6.900;2023-11-18T02:35:30;102147.41;;;6.41
37452;BMP280;23314;51.114;6.900;2023-11-18T02:38:01;102138.38;;;6.42
37452;BMP280;23314;51.114;6.900;2023-11-18T02:40:32;102133.06;;;6.42
37452;BMP280;23314;51.114;6.900;2023-11-18T02:42:59;102118.56;;;6.39
37452;BMP280;23314;51.114;6.900;2023-11-18T02:45:26;102118.81;;;6.34
37452;BMP280;23314;51.114;6.900;2023-11-18T02:47:52;102112.63;;;6.30
37452;BMP280;23314;51.114;6.900;2023-11-18T02:50:26;102121.63;;;6.25
37452;BMP280;23314;51.114;6.900;2023-11-18T02:52:53;102113.88;;;6.20
37452;BMP280;23314;51.114;6.900;2023-11-18T02:55:18;102112.19;;;6.15
37452;BMP280;23314;51.114;6.900;2023-11-18T02:57:43;102109.47;;;6.12
37452;BMP280;23314;51.114;6.900;2023-11-18T03:00:09;102111.22;;;6.08
37452;BMP280;23314;51.114;6.900;2023-11-18T03:02:42;102118.63;;;6.02
37452;BMP280;23314;51.114;6.900;2023-11-18T03:05:07;102129.16;;;5.98
37452;BMP280;23314;51.114;6.900;2023-11-18T03:07:37;102127.81;;;5.92
37452;BMP280;23314;51.114;6.900;2023-11-18T03:10:02;102140.63;;;5.90
37452;BMP280;23314;51.114;6.900;2023-11-18T03:12:33;102135.66;;;5.89
37452;BMP280;23314;51.114;6.900;2023-11-18T03:14:58;102134.09;;;5.88
37452;BMP280;23314;51.114;6.900;2023-11-18T03:17:24;102123.50;;;5.88
37452;BMP280;23314;51.114;6.900;2023-11-18T03:19:49;102114.78;;;5.87
37452;BMP280;23314;51.114;6.900;2023-11-18T03:22:16;102118.53;;;5.86
37452;BMP280;23314;51.114;6.900;2023-11-18T03:24:41;102116.66;;;5.87
37452;BMP280;23314;51.114;6.900;2023-11-18T03:27:08;102111.69;;;5.85
37452;BMP280;23314;51.114;6.900;2023-11-18T03:29:34;102105.22;;;5.82
37452;BMP280;23314;51.114;6.900;2023-11-18T03:31:59;102104.09;;;5.83
37452;BMP280;23314;51.114;6.900;2023-11-18T03:34:25;102089.63;;;5.81
37452;BMP280;23314;51.114;6.900;2023-11-18T03:36:50;102081.56;;;5.77
37452;BMP280;23314;51.114;6.900;2023-11-18T03:39:16;102079.28;;;5.76
37452;BMP280;23314;51.114;6.900;2023-11-18T03:41:41;102081.91;;;5.76
37452;BMP280;23314;51.114;6.900;2023-11-18T03:44:11;102080.38;;;5.75
37452;BMP280;23314;51.114;6.900;2023-11-18T03:46:36;102079.28;;;5.76
37452;BMP280;23314;51.114;6.900;2023-11-18T03:49:02;102081.56;;;5.77
37452;BMP280;23314;51.114;6.900;2023-11-18T03:51:28;102085.78;;;5.78
37452;BMP280;23314;51.114;6.900;2023-11-18T03:53:53;102091.81;;;5.79
37452;BMP280;23314;51.114;6.900;2023-11-18T03:56:19;102097.91;;;5.79
37452;BMP280;23314;51.114;6.900;2023-11-18T03:58:44;102111.59;;;5.81
37452;BMP280;23314;51.114;6.900;2023-11-18T04:01:19;102120.00;;;5.83
37452;BMP280;23314;51.114;6.900;2023-11-18T04:03:45;102120.00;;;5.83
37452;BMP280;23314;51.114;6.900;2023-11-18T04:06:10;102121.63;;;5.88
37452;BMP280;23314;51.114;6.900;2023-11-18T04:08:36;102115.66;;;5.91
37452;BMP280;23314;51.114;6.900;2023-11-18T04:11:02;102119.88;;;5.92
37452;BMP280;23314;51.114;6.900;2023-11-18T04:13:27;102122.81;;;5.91
37452;BMP280;23314;51.114;6.900;2023-11-18T04:15:52;102112.13;;;5.87
37452;BMP280;23314;51.114;6.900;2023-11-18T04:18:18;102102.56;;;5.82
37452;BMP280;23314;51.114;6.900;2023-11-18T04:20:44;102103.53;;;5.78
37452;BMP280;23314;51.114;6.900;2023-11-18T04:23:09;102098.31;;;5.69
37452;BMP280;23314;51.114;6.900;2023-11-18T04:25:37;102085.34;;;5.64
37452;BMP280;23314;51.114;6.900;2023-11-18T04:28:02;102077.59;;;5.59
37452;BMP280;23314;51.114;6.900;2023-11-18T04:30:29;102071.75;;;5.53
37452;BMP280;23314;51.114;6.900;2023-11-18T04:32:54;102076.50;;;5.47
37452;BMP280;23314;51.114;6.900;2023-11-18T04:35:20;102072.63;;;5.45
37452;BMP280;23314;51.114;6.900;2023-11-18T04:37:47;102066.09;;;5.42
37452;BMP280;23314;51.114;6.900;2023-11-18T04:40:13;102064.25;;;5.43
37452;BMP280;23314;51.114;6.900;2023-11-18T04:42:39;102065.00;;;5.43
37452;BMP280;23314;51.114;6.900;2023-11-18T04:45:05;102045.72;;;5.43
37452;BMP280;23314;51.114;6.900;2023-11-18T04:47:30;102042.28;;;5.42
37452;BMP280;23314;51.114;6.900;2023-11-18T04:49:56;102038.13;;;5.41
37452;BMP280;23314;51.114;6.900;2023-11-18T04:52:21;102040.31;;;5.39
37452;BMP280;23314;51.114;6.900;2023-11-18T04:54:47;102025.84;;;5.36
37452;BMP280;23314;51.114;6.900;2023-11-18T04:57:14;102024.34;;;5.35
37452;BMP280;23314;51.114;6.900;2023-11-18T04:59:42;102030.41;;;5.36
37452;BMP280;23314;51.114;6.900;2023-11-18T05:02:08;102028.50;;;5.36
37452;BMP280;23314;51.114;6.900;2023-11-18T05:04:33;102033.78;;;5.36
37452;BMP280;23314;51.114;6.900;2023-11-18T05:06:59;102036.44;;;5.36
37452;BMP280;23314;51.114;6.900;2023-11-18T05:09:24;102025.53;;;5.38
37452;BMP280;23314;51.114;6.900;2023-11-18T05:11:49;102021.78;;;5.39
37452;BMP280;23314;51.114;6.900;2023-11-18T05:14:14;102014.63;;;5.40
37452;BMP280;23314;51.114;6.900;2023-11-18T05:16:41;101995.78;;;5.41
37452;BMP280;23314;51.114;6.900;2023-11-18T05:19:07;101999.06;;;5.38
37452;BMP280;23314;51.114;6.900;2023-11-18T05:21:32;101994.88;;;5.37
37452;BMP280;23314;51.114;6.900;2023-11-18T05:23:58;101980.44;;;5.34
37452;BMP280;23314;51.114;6.900;2023-11-18T05:26:23;101985.28;;;5.32
37452;BMP280;23314;51.114;6.900;2023-11-18T05:28:48;101978.44;;;5.31
37452;BMP280;23314;51.114;6.900;2023-11-18T05:31:15;101977.34;;;5.32
37452;BMP280;23314;51.114;6.900;2023-11-18T05:33:40;101974.72;;;5.32
37452;BMP280;23314;51.114;6.900;2023-11-18T05:36:06;101975.16;;;5.34
37452;BMP280;23314;51.114;6.900;2023-11-18T05:38:32;101975.38;;;5.42
37452;BMP280;23314;51.114;6.900;2023-11-18T05:41:00;101981.22;;;5.47
37452;BMP280;23314;51.114;6.900;2023-11-18T05:43:32;101983.28;;;5.54
37452;BMP280;23314;51.114;6.900;2023-11-18T05:46:10;101984.59;;;5.60
37452;BMP280;23314;51.114;6.900;2023-11-18T05:48:49;101980.66;;;5.66
37452;BMP280;23314;51.114;6.900;2023-11-18T05:51:19;101978.88;;;5.71
37452;BMP280;23314;51.114;6.900;2023-11-18T05:53:45;101975.66;;;5.77
37452;BMP280;23314;51.114;6.900;2023-11-18T05:56:11;101967.81;;;5.81
37452;BMP280;23314;51.114;6.900;2023-11-18T05:58:37;101962.97;;;5.83
37452;BMP280;23314;51.114;6.900;2023-11-18T06:01:04;101973.31;;;5.88
37452;BMP280;23314;51.114;6.900;2023-11-18T06:03:30;101973.84;;;5.94
37452;BMP280;23314;51.114;6.900;2023-11-18T06:05:55;101969.44;;;5.98
37452;BMP280;23314;51.114;6.900;2023-11-18T06:08:21;101962.34;;;6.02
37452;BMP280;23314;51.114;6.900;2023-11-18T06:10:48;101965.44;;;6.04
37452;BMP280;23314;51.114;6.900;2023-11-18T06:13:14;101965.19;;;6.09
37452;BMP280;23314;51.114;6.900;2023-11-18T06:15:42;101969.06;;;6.12
37452;BMP280;23314;51.114;6.900;2023-11-18T06:18:08;101954.75;;;6.17
37452;BMP280;23314;51.114;6.900;2023-11-18T06:20:37;101954.09;;;6.20
37452;BMP280;23314;51.114;6.900;2023-11-18T06:23:03;101955.31;;;6.22
37452;BMP280;23314;51.114;6.900;2023-11-18T06:25:28;101945.16;;;6.24
37452;BMP280;23314;51.114;6.900;2023-11-18T06:27:56;101948.56;;;6.25
37452;BMP280;23314;51.114;6.900;2023-11-18T06:30:23;101946.38;;;6.27
37452;BMP280;23314;51.114;6.900;2023-11-18T06:32:48;101947.53;;;6.29
37452;BMP280;23314;51.114;6.900;2023-11-18T06:35:14;101948.31;;;6.30
37452;BMP280;23314;51.114;6.900;2023-11-18T06:37:42;101940.81;;;6.32
37452;BMP280;23314;51.114;6.900;2023-11-18T06:40:08;101940.88;;;6.36
37452;BMP280;23314;51.114;6.900;2023-11-18T06:42:44;101941.69;;;6.36
37452;BMP280;23314;51.114;6.900;2023-11-18T06:45:13;101931.84;;;6.37
37452;BMP280;23314;51.114;6.900;2023-11-18T06:47:40;101934.13;;;6.38
37452;BMP280;23314;51.114;6.900;2023-11-18T06:50:10;101929.63;;;6.39
37452;BMP280;23314;51.114;6.900;2023-11-18T06:52:40;101950.47;;;6.40
37452;BMP280;23314;51.114;6.900;2023-11-18T06:55:07;101966.47;;;6.44
37452;BMP280;23314;51.114;6.900;2023-11-18T06:57:32;101961.94;;;6.44
37452;BMP280;23314;51.114;6.900;2023-11-18T06:59:58;101965.34;;;6.45
37452;BMP280;23314;51.114;6.900;2023-11-18T07:02:23;101962.03;;;6.48
37452;BMP280;23314;51.114;6.900;2023-11-18T07:04:49;101962.81;;;6.49
37452;BMP280;23314;51.114;6.900;2023-11-18T07:07:14;101957.59;;;6.52
37452;BMP280;23314;51.114;6.900;2023-11-18T07:09:39;101962.56;;;6.54
37452;BMP280;23314;51.114;6.900;2023-11-18T07:12:05;101972.91;;;6.59
37452;BMP280;23314;51.114;6.900;2023-11-18T07:14:30;101984.34;;;6.63
37452;BMP280;23314;51.114;6.900;2023-11-18T07:16:56;101990.88;;;6.66
37452;BMP280;23314;51.114;6.900;2023-11-18T08:13:56;101944.75;;;7.54
37452;BMP280;23314;51.114;6.900;2023-11-18T08:16:23;101943.53;;;7.51
37452;BMP280;23314;51.114;6.900;2023-11-18T08:18:49;101940.88;;;7.51
37452;BMP280;23314;51.114;6.900;2023-11-18T08:21:15;101934.88;;;7.54
37452;BMP280;23314;51.114;6.900;2023-11-18T08:23:41;101927.72;;;7.59
37452;BMP280;23314;51.114;6.900;2023-11-18T08:26:06;101936.19;;;7.64
37452;BMP280;23314;51.114;6.900;2023-11-18T08:28:32;101937.84;;;7.69
37452;BMP280;23314;51.114;6.900;2023-11-18T08:30:57;101944.38;;;7.75
37452;BMP280;23314;51.114;6.900;2023-11-18T08:33:22;101947.88;;;7.79
37452;BMP280;23314;51.114;6.900;2023-11-18T08:35:51;101936.97;;;7.84
37452;BMP280;23314;51.114;6.900;2023-11-18T08:38:16;101936.69;;;7.90
37452;BMP280;23314;51.114;6.900;2023-11-18T08:40:41;101945.56;;;7.97
37452;BMP280;23314;51.114;6.900;2023-11-18T08:43:08;101951.38;;;8.03
37452;BMP280;23314;51.114;6.900;2023-11-18T08:45:33;101944.97;;;8.08
37452;BMP280;23314;51.114;6.900;2023-11-18T08:48:01;101933.34;;;8.16
37452;BMP280;23314;51.114;6.900;2023-11-18T08:50:27;101929.63;;;8.20
37452;BMP280;23314;51.114;6.900;2023-11-18T08:52:54;101928.63;;;8.29
37452;BMP280;23314;51.114;6.900;2023-11-18T08:55:27;101933.69;;;8.34
37452;BMP280;23314;51.114;6.900;2023-11-18T08:58:13;101947.09;;;8.41
37452;BMP280;23314;51.114;6.900;2023-11-18T09:00:50;101942.66;;;8.49
37452;BMP280;23314;51.114;6.900;2023-11-18T09:03:24;101940.47;;;8.55
37452;BMP280;23314;51.114;6.900;2023-11-18T09:08:44;101946.41;;;8.71
37452;BMP280;23314;51.114;6.900;2023-11-18T09:11:10;101931.28;;;8.79
37452;BMP280;23314;51.114;6.900;2023-11-18T09:13:37;101922.59;;;8.82
37452;BMP280;23314;51.114;6.900;2023-11-18T09:16:05;101927.66;;;8.87
37452;BMP280;23314;51.114;6.900;2023-11-18T09:18:34;101918.56;;;8.92
37452;BMP280;23314;51.114;6.900;2023-11-18T09:21:03;101915.19;;;8.95
37452;BMP280;23314;51.114;6.900;2023-11-18T09:23:30;101903.84;;;8.98
37452;BMP280;23314;51.114;6.900;2023-11-18T09:26:03;101905.34;;;8.99
37452;BMP280;23314;51.114;6.900;2023-11-18T09:28:33;101910.28;;;8.97
37452;BMP280;23314;51.114;6.900;2023-11-18T09:31:01;101906.09;;;8.96
37452;BMP280;23314;51.114;6.900;2023-11-18T09:33:30;101905.34;;;8.95
37452;BMP280;23314;51.114;6.900;2023-11-18T09:36:03;101895.03;;;8.94
37452;BMP280;23314;51.114;6.900;2023-11-18T09:38:30;101885.91;;;8.95
37452;BMP280;23314;51.114;6.900;2023-11-18T09:41:01;101894.72;;;8.99
37452;BMP280;23314;51.114;6.900;2023-11-18T09:43:30;101895.53;;;9.03
37452;BMP280;23314;51.114;6.900;2023-11-18T09:46:04;101897.88;;;9.08
37452;BMP280;23314;51.114;6.900;2023-11-18T09:48:40;101890.34;;;9.14
37452;BMP280;23314;51.114;6.900;2023-11-18T09:51:07;101890.06;;;9.23
37452;BMP280;23314;51.114;6.900;2023-11-18T09:53:37;101893.56;;;9.30
37452;BMP280;23314;51.114;6.900;2023-11-18T09:56:07;101885.28;;;9.39
37452;BMP280;23314;51.114;6.900;2023-11-18T09:58:47;101881.19;;;9.45
37452;BMP280;23314;51.114;6.900;2023-11-18T10:01:15;101881.25;;;9.49
37452;BMP280;23314;51.114;6.900;2023-11-18T10:03:44;101887.72;;;9.52
37452;BMP280;23314;51.114;6.900;2023-11-18T10:06:12;101883.91;;;9.49
37452;BMP280;23314;51.114;6.900;2023-11-18T10:08:40;101878.91;;;9.47
37452;BMP280;23314;51.114;6.900;2023-11-18T10:11:05;101878.16;;;9.47
37452;BMP280;23314;51.114;6.900;2023-11-18T10:13:34;101877.41;;;9.50
37452;BMP280;23314;51.114;6.900;2023-11-18T10:16:08;101877.91;;;9.56
37452;BMP280;23314;51.114;6.900;2023-11-18T10:18:34;101874.91;;;9.61
37452;BMP280;23314;51.114;6.900;2023-11-18T10:21:03;101857.03;;;9.65
37452;BMP280;23314;51.114;6.900;2023-11-18T10:23:33;101844.91;;;9.71
37452;BMP280;23314;51.114;6.900;2023-11-18T10:25:59;101836.56;;;9.76
37452;BMP280;23314;51.114;6.900;2023-11-18T10:28:35;101832.09;;;9.88
37452;BMP280;23314;51.114;6.900;2023-11-18T10:31:07;101819.19;;;9.93
37452;BMP280;23314;51.114;6.900;2023-11-18T10:33:38;101818.06;;;9.94
37452;BMP280;23314;51.114;6.900;2023-11-18T10:36:17;101811.63;;;9.95
37452;BMP280;23314;51.114;6.900;2023-11-18T10:38:48;101811.22;;;9.93
37452;BMP280;23314;51.114;6.900;2023-11-18T10:41:15;101809.28;;;9.94
37452;BMP280;23314;51.114;6.900;2023-11-18T10:43:42;101800.16;;;9.95
37452;BMP280;23314;51.114;6.900;2023-11-18T10:46:13;101790.63;;;9.94
37452;BMP280;23314;51.114;6.900;2023-11-18T10:51:06;101762.84;;;9.95
37452;BMP280;23314;51.114;6.900;2023-11-18T10:53:32;101769.31;;;9.94
37452;BMP280;23314;51.114;6.900;2023-11-18T10:55:58;101755.97;;;9.90
37452;BMP280;23314;51.114;6.900;2023-11-18T10:58:23;101755.97;;;9.90
37452;BMP280;23314;51.114;6.900;2023-11-18T11:00:50;101759.00;;;9.89
37452;BMP280;23314;51.114;6.900;2023-11-18T11:03:18;101760.88;;;9.85
37452;BMP280;23314;51.114;6.900;2023-11-18T11:05:44;101765.09;;;9.86
37452;BMP280;23314;51.114;6.900;2023-11-18T11:08:14;101768.09;;;9.84
37452;BMP280;23314;51.114;6.900;2023-11-18T11:10:49;101766.59;;;9.83
37452;BMP280;23314;51.114;6.900;2023-11-18T11:13:16;101770.41;;;9.86
37452;BMP280;23314;51.114;6.900;2023-11-18T11:15:43;101755.59;;;9.88
37452;BMP280;23314;51.114;6.900;2023-11-18T11:18:12;101752.19;;;9.91
37452;BMP280;23314;51.114;6.900;2023-11-18T11:23:53;101753.00;;;9.99
37452;BMP280;23314;51.114;6.900;2023-11-18T11:26:33;101753.78;;;10.03
37452;BMP280;23314;51.114;6.900;2023-11-18T11:31:38;101747.31;;;10.04
37452;BMP280;23314;51.114;6.900;2023-11-18T11:34:06;101746.16;;;10.02
37452;BMP280;23314;51.114;6.900;2023-11-18T11:36:42;101742.72;;;10.01
37452;BMP280;23314;51.114;6.900;2023-11-18T11:39:08;101749.19;;;10.00
37452;BMP280;23314;51.114;6.900;2023-11-18T11:41:50;101740.41;;;10.00
37452;BMP280;23314;51.114;6.900;2023-11-18T11:44:16;101736.31;;;10.09
37452;BMP280;23314;51.114;6.900;2023-11-18T11:46:45;101728.94;;;10.84
37452;BMP280;23314;51.114;6.900;2023-11-18T11:49:13;101728.97;;;11.74
37452;BMP280;23314;51.114;6.900;2023-11-18T11:51:54;101718.97;;;11.93
37452;BMP280;23314;51.114;6.900;2023-11-18T11:54:30;101716.75;;;11.73
37452;BMP280;23314;51.114;6.900;2023-11-18T11:57:02;101713.72;;;11.56
37452;BMP280;23314;51.114;6.900;2023-11-18T12:02:09;101712.22;;;11.23
37452;BMP280;23314;51.114;6.900;2023-11-18T12:04:35;101712.22;;;11.12
37452;BMP280;23314;51.114;6.900;2023-11-18T12:07:07;101714.50;;;10.99
37452;BMP280;23314;51.114;6.900;2023-11-18T12:09:35;101713.31;;;10.86
37452;BMP280;23314;51.114;6.900;2023-11-18T12:12:06;101706.03;;;10.72
37452;BMP280;23314;51.114;6.900;2023-11-18T12:14:55;101706.41;;;10.59
37452;BMP280;23314;51.114;6.900;2023-11-18T12:17:22;101702.97;;;10.52
37452;BMP280;23314;51.114;6.900;2023-11-18T12:19:48;101696.06;;;10.43
37452;BMP280;23314;51.114;6.900;2023-11-18T12:22:18;101676.59;;;10.39
37452;BMP280;23314;51.114;6.900;2023-11-18T12:30:05;101640.72;;;10.19
37452;BMP280;23314;51.114;6.900;2023-11-18T12:35:49;101622.75;;;9.98
37452;BMP280;23314;51.114;6.900;2023-11-18T12:41:38;101608.66;;;9.97
37452;BMP280;23314;51.114;6.900;2023-11-18T12:44:22;101608.25;;;9.99
37452;BMP280;23314;51.114;6.900;2023-11-18T12:47:03;101607.91;;;10.00
37452;BMP280;23314;51.114;6.900;2023-11-18T12:49:40;101601.81;;;10.03
37452;BMP280;23314;51.114;6.900;2023-11-18T12:52:07;101604.47;;;10.00
37452;BMP280;23314;51.114;6.900;2023-11-18T12:54:34;101590.00;;;10.01
37452;BMP280;23314;51.114;6.900;2023-11-18T12:57:02;101567.16;;;10.03
37452;BMP280;23314;51.114;6.900;2023-11-18T12:59:32;101546.63;;;10.07
37452;BMP280;23314;51.114;6.900;2023-11-18T13:01:57;101527.94;;;10.11
37452;BMP280;23314;51.114;6.900;2023-11-18T13:04:23;101522.63;;;10.11
37452;BMP280;23314;51.114;6.900;2023-11-18T13:06:50;101528.69;;;10.11
37452;BMP280;23314;51.114;6.900;2023-11-18T13:09:17;101538.63;;;10.15
37452;BMP280;23314;51.114;6.900;2023-11-18T13:11:56;101544.72;;;10.15
37452;BMP280;23314;51.114;6.900;2023-11-18T13:14:28;101556.16;;;10.16
37452;BMP280;23314;51.114;6.900;2023-11-18T13:16:56;101540.16;;;10.16
37452;BMP280;23314;51.114;6.900;2023-11-18T13:19:28;101521.13;;;10.17
37452;BMP280;23314;51.114;6.900;2023-11-18T13:22:01;101504.75;;;10.15
37452;BMP280;23314;51.114;6.900;2023-11-18T13:24:34;101482.25;;;10.16
37452;BMP280;23314;51.114;6.900;2023-11-18T13:27:00;101467.00;;;10.38
37452;BMP280;23314;51.114;6.900;2023-11-18T13:29:28;101443.03;;;10.31
37452;BMP280;23314;51.114;6.900;2023-11-18T13:31:54;101424.72;;;10.30
37452;BMP280;23314;51.114;6.900;2023-11-18T13:34:21;101422.84;;;10.26
37452;BMP280;23314;51.114;6.900;2023-11-18T13:36:48;101427.81;;;10.28
37452;BMP280;23314;51.114;6.900;2023-11-18T13:39:18;101431.19;;;10.28
37452;BMP280;23314;51.114;6.900;2023-11-18T13:41:44;101431.22;;;10.32
37452;BMP280;23314;51.114;6.900;2023-11-18T13:44:11;101413.31;;;10.33
37452;BMP280;23314;51.114;6.900;2023-11-18T13:46:39;101415.97;;;10.33
37452;BMP280;23314;51.114;6.900;2023-11-18T13:49:06;101411.03;;;10.31
37452;BMP280;23314;51.114;6.900;2023-11-18T13:51:31;101404.53;;;10.28
37452;BMP280;23314;51.114;6.900;2023-11-18T13:53:59;101390.84;;;10.26
37452;BMP280;23314;51.114;6.900;2023-11-18T13:56:24;101379.03;;;10.24
37452;BMP280;23314;51.114;6.900;2023-11-18T13:58:52;101378.25;;;10.23
37452;BMP280;23314;51.114;6.900;2023-11-18T14:01:18;101375.97;;;10.22
37452;BMP280;23314;51.114;6.900;2023-11-18T14:03:43;101368.38;;;10.20
37452;BMP280;23314;51.114;6.900;2023-11-18T14:06:09;101347.44;;;10.19
37452;BMP280;23314;51.114;6.900;2023-11-18T14:08:43;101354.25;;;10.20
37452;BMP280;23314;51.114;6.900;2023-11-18T14:11:08;101345.13;;;10.21
37452;BMP280;23314;51.114;6.900;2023-11-18T14:13:35;101338.25;;;10.20
37452;BMP280;23314;51.114;6.900;2023-11-18T14:16:01;101335.59;;;10.23
37452;BMP280;23314;51.114;6.900;2023-11-18T14:18:27;101335.97;;;10.22
37452;BMP280;23314;51.114;6.900;2023-11-18T14:20:53;101319.25;;;10.18
37452;BMP280;23314;51.114;6.900;2023-11-18T14:23:18;101310.50;;;10.17
37452;BMP280;23314;51.114;6.900;2023-11-18T14:25:46;101317.31;;;10.15
37452;BMP280;23314;51.114;6.900;2023-11-18T14:28:12;101305.53;;;10.12
37452;BMP280;23314;51.114;6.900;2023-11-18T14:30:38;101299.09;;;10.09
37452;BMP280;23314;51.114;6.900;2023-11-18T14:33:03;101294.47;;;10.03
37452;BMP280;23314;51.114;6.900;2023-11-18T14:35:29;101291.84;;;9.99
37452;BMP280;23314;51.114;6.900;2023-11-18T14:37:54;101291.06;;;9.95
37452;BMP280;23314;51.114;6.900;2023-11-18T14:40:21;101293.38;;;9.93
37452;BMP280;23314;51.114;6.900;2023-11-18T14:42:49;101295.25;;;9.89
37452;BMP280;23314;51.114;6.900;2023-11-18T14:45:15;101296.41;;;9.84
37452;BMP280;23314;51.114;6.900;2023-11-18T14:47:41;101285.00;;;9.80
37452;BMP280;23314;51.114;6.900;2023-11-18T14:50:07;101278.53;;;9.77
37452;BMP280;23314;51.114;6.900;2023-11-18T14:52:41;101279.31;;;9.74
37452;BMP280;23314;51.114;6.900;2023-11-18T14:55:07;101284.25;;;9.69
37452;BMP280;23314;51.114;6.900;2023-11-18T14:57:40;101277.75;;;9.66
37452;BMP280;23314;51.114;6.900;2023-11-18T15:00:07;101255.69;;;9.62
37452;BMP280;23314;51.114;6.900;2023-11-18T15:02:37;101241.63;;;9.58
37452;BMP280;23314;51.114;6.900;2023-11-18T15:05:03;101238.59;;;9.56
37452;BMP280;23314;51.114;6.900;2023-11-18T15:07:34;101232.50;;;9.52
37452;BMP280;23314;51.114;6.900;2023-11-18T15:09:59;101242.38;;;9.47
37452;BMP280;23314;51.114;6.900;2023-11-18T15:12:25;101253.44;;;9.46
37452;BMP280;23314;51.114;6.900;2023-11-18T15:14:50;101246.94;;;9.43
37452;BMP280;23314;51.114;6.900;2023-11-18T15:17:15;101231.75;;;9.44
37452;BMP280;23314;51.114;6.900;2023-11-18T15:19:40;101229.81;;;9.37
37452;BMP280;23314;51.114;6.900;2023-11-18T15:22:06;101226.41;;;9.37
37452;BMP280;23314;51.114;6.900;2023-11-18T15:24:31;101237.06;;;9.37
37452;BMP280;23314;51.114;6.900;2023-11-18T15:26:57;101242.38;;;9.37
37452;BMP280;23314;51.114;6.900;2023-11-18T15:29:25;101218.03;;;9.35